Time,TemperatureF,DewpointF,PressureIn,WindDirection,WindDirectionDegrees,WindSpeedMPH,WindSpeedGustMPH,Humidity,HourlyPrecipIn,Conditions,Clouds,dailyrainin,SoftwareType,DateUTC
2013-02-10 00:00:00,34.5,2.3,25.28,WSW,256,8.3,8.3,25,0.00,,---,0.00,VWS V14.00,2013-02-10 07:00:00,
2013-02-10 00:05:00,34.3,2.2,25.28,WSW,243,3.6,4.0,25,0.00,,---,0.00,VWS V14.00,2013-02-10 07:05:00,
2013-02-10 00:10:00,34.0,1.9,25.28,West,263,6.3,6.3,25,0.00,,---,0.00,VWS V14.00,2013-02-10 07:10:00,
2013-02-10 00:15:00,33.8,1.7,25.28,West,275,3.6,3.6,25,0.00,,---,0.00,VWS V14.00,2013-02-10 07:15:00,
2013-02-10 00:20:00,33.3,1.2,25.28,West,275,2.7,3.1,25,0.00,,---,0.00,VWS V14.00,2013-02-10 07:20:00,
2013-02-10 00:25:00,32.4,0.5,25.28,West,276,4.0,4.0,25,0.00,,---,0.00,VWS V14.00,2013-02-10 07:25:00,
2013-02-10 00:30:00,31.3,-0.4,25.28,West,278,3.6,3.6,25,0.00,,---,0.00,VWS V14.00,2013-02-10 07:30:00,
2013-02-10 00:35:00,30.6,1.4,25.28,WNW,303,2.7,4.0,28,0.00,,---,0.00,VWS V14.00,2013-02-10 07:35:00,
2013-02-10 00:40:00,30.2,2.5,25.28,West,265,6.3,6.3,30,0.00,,---,0.00,VWS V14.00,2013-02-10 07:40:00,
2013-02-10 00:45:00,30.2,3.2,25.28,West,259,3.1,3.6,31,0.00,,---,0.00,VWS V14.00,2013-02-10 07:45:00,
2013-02-10 00:51:00,30.4,2.7,25.28,WSW,257,4.9,4.9,30,0.00,,---,0.00,VWS V14.00,2013-02-10 07:51:00,
2013-02-10 00:56:00,30.6,2.8,25.28,WSW,257,3.1,3.6,30,0.00,,---,0.00,VWS V14.00,2013-02-10 07:56:00,
2013-02-10 01:01:00,30.9,3.1,25.28,West,266,0.0,0.0,30,0.00,,---,0.00,VWS V14.00,2013-02-10 08:01:00,
2013-02-10 01:06:00,30.9,3.1,25.28,West,268,0.0,0.0,30,0.00,,---,0.00,VWS V14.00,2013-02-10 08:06:00,
2013-02-10 01:11:00,31.1,3.3,25.28,West,268,0.0,0.0,30,0.00,,---,0.00,VWS V14.00,2013-02-10 08:11:00,
2013-02-10 01:16:00,30.6,2.8,25.28,West,272,5.4,5.4,30,0.00,,---,0.00,VWS V14.00,2013-02-10 08:16:00,
2013-02-10 01:21:00,29.7,2.7,25.28,WNW,284,6.7,6.7,31,0.00,,---,0.00,VWS V14.00,2013-02-10 08:21:00,
2013-02-10 01:26:00,30.2,3.9,25.28,WNW,289,6.3,6.3,32,0.00,,---,0.00,VWS V14.00,2013-02-10 08:26:00,
2013-02-10 01:31:00,30.9,3.8,25.28,WNW,288,4.9,5.8,31,0.00,,---,0.00,VWS V14.00,2013-02-10 08:31:00,
2013-02-10 01:36:00,30.9,3.8,25.28,WNW,289,2.7,3.1,31,0.00,,---,0.00,VWS V14.00,2013-02-10 08:36:00,
2013-02-10 01:42:00,30.0,3.1,25.28,WNW,289,0.0,0.0,31,0.00,,---,0.00,VWS V14.00,2013-02-10 08:42:00,
2013-02-10 01:47:00,29.5,2.6,25.28,West,268,4.0,4.0,31,0.00,,---,0.00,VWS V14.00,2013-02-10 08:47:00,
2013-02-10 01:52:00,29.3,3.1,25.28,West,268,0.0,0.0,32,0.00,,---,0.00,VWS V14.00,2013-02-10 08:52:00,
2013-02-10 01:57:00,28.6,2.5,25.28,West,267,0.0,0.0,32,0.00,,---,0.00,VWS V14.00,2013-02-10 08:57:00,
2013-02-10 02:02:00,27.7,1.7,25.28,West,262,0.0,0.0,32,0.00,,---,0.00,VWS V14.00,2013-02-10 09:02:00,
2013-02-10 02:07:00,27.0,1.7,25.28,West,262,0.0,0.0,33,0.00,,---,0.00,VWS V14.00,2013-02-10 09:07:00,
2013-02-10 02:12:00,26.2,1.7,25.28,West,262,0.0,0.0,34,0.00,,---,0.00,VWS V14.00,2013-02-10 09:12:00,
2013-02-10 02:17:00,26.1,2.8,25.28,West,259,4.0,4.0,36,0.00,,---,0.00,VWS V14.00,2013-02-10 09:17:00,
2013-02-10 02:22:00,26.1,3.9,25.28,WSW,256,3.6,3.6,38,0.00,,---,0.00,VWS V14.00,2013-02-10 09:22:00,
2013-02-10 02:27:00,25.9,4.3,25.28,WSW,253,4.0,4.0,39,0.00,,---,0.00,VWS V14.00,2013-02-10 09:27:00,
2013-02-10 02:32:00,26.1,5.1,25.28,SW,230,3.6,3.6,40,0.00,,---,0.00,VWS V14.00,2013-02-10 09:32:00,
2013-02-10 02:38:00,26.2,5.2,25.28,SW,231,2.2,2.7,40,0.00,,---,0.00,VWS V14.00,2013-02-10 09:38:00,
2013-02-10 02:43:00,26.6,5.0,25.28,SW,231,2.7,2.7,39,0.00,,---,0.00,VWS V14.00,2013-02-10 09:43:00,
2013-02-10 02:48:00,26.8,4.6,25.28,SW,230,0.0,0.0,38,0.00,,---,0.00,VWS V14.00,2013-02-10 09:48:00,
2013-02-10 02:53:00,26.1,3.4,25.28,SW,231,0.0,0.0,37,0.00,,---,0.00,VWS V14.00,2013-02-10 09:53:00,
2013-02-10 02:58:00,25.9,3.2,25.28,SW,230,4.5,4.9,37,0.00,,---,0.00,VWS V14.00,2013-02-10 09:58:00,
2013-02-10 03:03:00,26.2,5.2,25.28,SW,231,4.9,4.9,40,0.00,,---,0.00,VWS V14.00,2013-02-10 10:03:00,
2013-02-10 03:08:00,26.2,4.7,25.28,SW,231,5.4,5.4,39,0.00,,---,0.00,VWS V14.00,2013-02-10 10:08:00,
2013-02-10 03:13:00,26.2,4.7,25.28,SW,231,5.4,5.4,39,0.00,,---,0.00,VWS V14.00,2013-02-10 10:13:00,
2013-02-10 03:18:00,25.7,3.6,25.28,SW,231,5.4,5.4,38,0.00,,---,0.00,VWS V14.00,2013-02-10 10:18:00,
2013-02-10 03:23:00,25.3,3.9,25.25,SW,234,3.6,4.0,39,0.00,,---,0.00,VWS V14.00,2013-02-10 10:23:00,
2013-02-10 03:29:00,25.3,4.9,25.25,SW,234,3.1,4.0,41,0.00,,---,0.00,VWS V14.00,2013-02-10 10:29:00,
2013-02-10 03:34:00,25.0,4.6,25.25,SW,234,4.0,4.0,41,0.00,,---,0.00,VWS V14.00,2013-02-10 10:34:00,
2013-02-10 03:39:00,24.6,4.8,25.25,SW,234,4.5,4.9,42,0.00,,---,0.00,VWS V14.00,2013-02-10 10:39:00,
2013-02-10 03:44:00,24.6,4.8,25.25,WSW,238,4.5,4.9,42,0.00,,---,0.00,VWS V14.00,2013-02-10 10:44:00,
2013-02-10 03:49:00,24.6,5.3,25.25,WSW,238,4.9,4.9,43,0.00,,---,0.00,VWS V14.00,2013-02-10 10:49:00,
2013-02-10 03:54:00,24.8,5.5,25.25,WSW,238,3.6,4.0,43,0.00,,---,0.00,VWS V14.00,2013-02-10 10:54:00,
2013-02-10 03:59:00,24.6,4.8,25.25,WSW,238,4.9,4.9,42,0.00,,---,0.00,VWS V14.00,2013-02-10 10:59:00,
2013-02-10 04:04:00,24.4,5.2,25.25,WSW,239,5.4,5.4,43,0.00,,---,0.00,VWS V14.00,2013-02-10 11:04:00,
2013-02-10 04:09:00,24.3,5.0,25.25,WSW,242,5.4,5.8,43,0.00,,---,0.00,VWS V14.00,2013-02-10 11:09:00,
2013-02-10 04:14:00,24.6,5.8,25.25,WSW,243,4.9,5.4,44,0.00,,---,0.00,VWS V14.00,2013-02-10 11:14:00,
2013-02-10 04:20:00,24.8,5.5,25.25,WSW,243,4.0,5.4,43,0.00,,---,0.00,VWS V14.00,2013-02-10 11:20:00,
2013-02-10 04:25:00,24.8,5.5,25.25,WSW,243,5.4,5.4,43,0.00,,---,0.00,VWS V14.00,2013-02-10 11:25:00,
2013-02-10 04:30:00,24.6,5.3,25.25,WSW,243,4.0,4.9,43,0.00,,---,0.00,VWS V14.00,2013-02-10 11:30:00,
2013-02-10 04:35:00,24.4,5.2,25.25,WSW,243,4.9,5.4,43,0.00,,---,0.00,VWS V14.00,2013-02-10 11:35:00,
2013-02-10 04:40:00,24.4,5.2,25.25,WSW,243,4.5,4.9,43,0.00,,---,0.00,VWS V14.00,2013-02-10 11:40:00,
2013-02-10 04:45:00,24.3,5.0,25.25,WSW,243,5.4,5.4,43,0.00,,---,0.00,VWS V14.00,2013-02-10 11:45:00,
2013-02-10 04:50:00,24.4,5.7,25.25,WSW,243,4.9,4.9,44,0.00,,---,0.00,VWS V14.00,2013-02-10 11:50:00,
2013-02-10 04:55:00,24.3,5.0,25.25,WSW,243,4.5,4.9,43,0.00,,---,0.00,VWS V14.00,2013-02-10 11:55:00,
2013-02-10 05:00:00,24.1,4.8,25.25,WSW,243,5.4,5.4,43,0.00,,---,0.00,VWS V14.00,2013-02-10 12:00:00,
2013-02-10 05:05:00,23.9,5.2,25.25,WSW,243,4.9,5.4,44,0.00,,---,0.00,VWS V14.00,2013-02-10 12:05:00,
2013-02-10 05:11:00,23.9,5.2,25.25,WSW,243,4.9,4.9,44,0.00,,---,0.00,VWS V14.00,2013-02-10 12:11:00,
2013-02-10 05:16:00,23.9,5.2,25.25,WSW,243,5.4,5.4,44,0.00,,---,0.00,VWS V14.00,2013-02-10 12:16:00,
2013-02-10 05:21:00,24.3,6.0,25.25,WSW,243,4.5,4.9,45,0.00,,---,0.00,VWS V14.00,2013-02-10 12:21:00,
2013-02-10 05:26:00,24.3,5.5,25.25,WSW,243,4.9,5.4,44,0.00,,---,0.00,VWS V14.00,2013-02-10 12:26:00,
2013-02-10 05:31:00,23.9,5.2,25.25,WSW,243,5.4,5.4,44,0.00,,---,0.00,VWS V14.00,2013-02-10 12:31:00,
2013-02-10 05:36:00,23.7,5.0,25.25,WSW,243,4.0,4.9,44,0.00,,---,0.00,VWS V14.00,2013-02-10 12:36:00,
2013-02-10 05:41:00,23.5,4.8,25.25,WSW,243,5.4,5.4,44,0.00,,---,0.00,VWS V14.00,2013-02-10 12:41:00,
2013-02-10 05:46:00,23.5,4.8,25.25,WSW,243,4.9,5.8,44,0.00,,---,0.00,VWS V14.00,2013-02-10 12:46:00,
2013-02-10 05:51:00,23.5,5.3,25.25,WSW,243,5.8,5.8,45,0.00,,---,0.00,VWS V14.00,2013-02-10 12:51:00,
2013-02-10 05:56:00,23.5,5.3,25.25,WSW,243,5.4,5.4,45,0.00,,---,0.00,VWS V14.00,2013-02-10 12:56:00,
2013-02-10 06:02:00,23.5,5.3,25.25,WSW,243,4.9,5.4,45,0.00,,---,0.00,VWS V14.00,2013-02-10 13:02:00,
2013-02-10 06:07:00,23.7,5.5,25.25,WSW,243,4.9,5.4,45,0.00,,---,0.00,VWS V14.00,2013-02-10 13:07:00,
2013-02-10 06:12:00,23.7,5.5,25.25,WSW,243,4.9,4.9,45,0.00,,---,0.00,VWS V14.00,2013-02-10 13:12:00,
2013-02-10 06:17:00,23.7,5.5,25.25,WSW,243,4.9,5.4,45,0.00,,---,0.00,VWS V14.00,2013-02-10 13:17:00,
2013-02-10 06:22:00,23.7,5.5,25.25,WSW,243,5.4,5.4,45,0.00,,---,0.00,VWS V14.00,2013-02-10 13:22:00,
2013-02-10 06:27:00,23.7,5.5,25.25,WSW,243,4.9,4.9,45,0.00,,---,0.00,VWS V14.00,2013-02-10 13:27:00,
2013-02-10 06:32:00,23.7,5.5,25.25,WSW,243,4.9,4.9,45,0.00,,---,0.00,VWS V14.00,2013-02-10 13:32:00,
2013-02-10 06:37:00,23.9,5.7,25.25,WSW,243,4.9,5.4,45,0.00,,---,0.00,VWS V14.00,2013-02-10 13:37:00,
2013-02-10 06:42:00,23.7,5.5,25.25,WSW,243,4.0,4.9,45,0.00,,---,0.00,VWS V14.00,2013-02-10 13:42:00,
2013-02-10 06:47:00,23.5,4.8,25.25,WSW,243,4.0,4.0,44,0.00,,---,0.00,VWS V14.00,2013-02-10 13:47:00,
2013-02-10 06:53:00,23.5,4.8,25.25,WSW,243,3.6,4.0,44,0.00,,---,0.00,VWS V14.00,2013-02-10 13:53:00,
2013-02-10 06:58:00,23.7,5.5,25.25,WSW,243,3.1,3.6,45,0.00,,---,0.00,VWS V14.00,2013-02-10 13:58:00,
2013-02-10 07:03:00,24.3,6.0,25.25,WSW,243,3.6,4.0,45,0.00,,---,0.00,VWS V14.00,2013-02-10 14:03:00,
2013-02-10 07:08:00,24.1,5.8,25.25,WSW,243,3.6,4.0,45,0.00,,---,0.00,VWS V14.00,2013-02-10 14:08:00,
2013-02-10 07:13:00,24.1,5.3,25.25,WSW,243,4.0,4.5,44,0.00,,---,0.00,VWS V14.00,2013-02-10 14:13:00,
2013-02-10 07:18:00,24.1,5.3,25.25,WSW,243,4.9,5.4,44,0.00,,---,0.00,VWS V14.00,2013-02-10 14:18:00,
2013-02-10 07:23:00,24.4,5.7,25.25,WSW,243,4.5,4.9,44,0.00,,---,0.00,VWS V14.00,2013-02-10 14:23:00,
2013-02-10 07:28:00,25.2,6.8,25.25,WSW,243,3.1,4.0,45,0.00,,---,0.00,VWS V14.00,2013-02-10 14:28:00,
2013-02-10 07:33:00,26.2,7.8,25.25,WSW,243,3.1,3.1,45,0.00,,---,0.00,VWS V14.00,2013-02-10 14:33:00,
2013-02-10 07:39:00,27.3,8.8,25.25,WSW,244,2.7,3.1,45,0.00,,---,0.00,VWS V14.00,2013-02-10 14:39:00,
2013-02-10 07:44:00,28.4,9.3,25.25,WSW,244,0.0,0.0,44,0.00,,---,0.00,VWS V14.00,2013-02-10 14:44:00,
2013-02-10 07:49:00,29.8,10.6,25.25,WSW,243,0.0,0.0,44,0.00,,---,0.00,VWS V14.00,2013-02-10 14:49:00,
2013-02-10 07:54:00,31.6,12.2,25.25,WSW,243,0.0,0.0,44,0.00,,---,0.00,VWS V14.00,2013-02-10 14:54:00,
2013-02-10 07:59:00,33.1,12.0,25.25,WSW,243,0.0,0.0,41,0.00,,---,0.00,VWS V14.00,2013-02-10 14:59:00,
2013-02-10 08:04:00,34.3,8.2,25.25,South,170,3.6,4.0,33,0.00,,---,0.00,VWS V14.00,2013-02-10 15:04:00,
2013-02-10 08:09:00,35.4,7.8,25.25,South,183,3.1,3.6,31,0.00,,---,0.00,VWS V14.00,2013-02-10 15:09:00,
2013-02-10 08:14:00,36.1,7.7,25.25,South,173,0.0,0.0,30,0.00,,---,0.00,VWS V14.00,2013-02-10 15:14:00,
2013-02-10 08:20:00,36.7,8.2,25.25,SSE,160,0.0,0.0,30,0.00,,---,0.00,VWS V14.00,2013-02-10 15:20:00,
2013-02-10 08:25:00,37.0,6.2,25.25,SSE,167,0.0,0.0,27,0.00,,---,0.00,VWS V14.00,2013-02-10 15:25:00,
2013-02-10 08:30:00,37.2,6.3,25.25,SSE,165,0.0,0.0,27,0.00,,---,0.00,VWS V14.00,2013-02-10 15:30:00,
2013-02-10 08:35:00,37.4,5.7,25.25,ESE,123,0.0,0.0,26,0.00,,---,0.00,VWS V14.00,2013-02-10 15:35:00,
2013-02-10 08:40:00,37.6,5.8,25.25,ESE,123,0.0,2.2,26,0.00,,---,0.00,VWS V14.00,2013-02-10 15:40:00,
2013-02-10 08:45:00,37.8,6.0,25.25,East,101,0.0,0.0,26,0.00,,---,0.00,VWS V14.00,2013-02-10 15:45:00,
2013-02-10 08:50:00,38.1,6.3,25.25,ESE,113,0.0,0.0,26,0.00,,---,0.00,VWS V14.00,2013-02-10 15:50:00,
2013-02-10 08:55:00,38.5,4.8,25.28,SE,140,4.9,5.8,24,0.00,,---,0.00,VWS V14.00,2013-02-10 15:55:00,
2013-02-10 09:01:00,38.5,4.8,25.28,SE,134,4.0,4.9,24,0.00,,---,0.00,VWS V14.00,2013-02-10 16:01:00,
2013-02-10 09:06:00,38.5,4.8,25.28,ESE,119,6.3,7.6,24,0.00,,---,0.00,VWS V14.00,2013-02-10 16:06:00,
2013-02-10 09:11:00,38.7,5.0,25.28,SSE,152,4.0,5.4,24,0.00,,---,0.00,VWS V14.00,2013-02-10 16:11:00,
2013-02-10 09:16:00,38.7,5.0,25.28,ENE,69,4.9,4.9,24,0.00,,---,0.00,VWS V14.00,2013-02-10 16:16:00,
2013-02-10 09:21:00,38.8,5.2,25.28,SE,127,5.4,5.4,24,0.00,,---,0.00,VWS V14.00,2013-02-10 16:21:00,
2013-02-10 09:26:00,39.0,5.3,25.28,ESE,102,0.0,0.0,24,0.00,,---,0.00,VWS V14.00,2013-02-10 16:26:00,
2013-02-10 09:31:00,39.4,4.7,25.28,East,82,0.0,0.0,23,0.00,,---,0.00,VWS V14.00,2013-02-10 16:31:00,
2013-02-10 09:36:00,39.7,5.0,25.28,East,99,0.0,4.9,23,0.00,,---,0.00,VWS V14.00,2013-02-10 16:36:00,
2013-02-10 09:41:00,40.1,5.3,25.28,ENE,70,3.1,3.1,23,0.00,,---,0.00,VWS V14.00,2013-02-10 16:41:00,
2013-02-10 09:47:00,40.5,5.6,25.28,East,89,3.1,3.6,23,0.00,,---,0.00,VWS V14.00,2013-02-10 16:47:00,
2013-02-10 09:52:00,40.8,5.9,25.28,NE,34,0.0,3.6,23,0.00,,---,0.00,VWS V14.00,2013-02-10 16:52:00,
2013-02-10 09:57:00,41.0,6.1,25.28,NE,56,3.6,4.0,23,0.00,,---,0.00,VWS V14.00,2013-02-10 16:57:00,
2013-02-10 10:02:00,41.2,6.2,25.28,NNE,29,0.0,0.0,23,0.00,,---,0.00,VWS V14.00,2013-02-10 17:02:00,
2013-02-10 10:07:00,41.4,6.4,25.28,NNE,29,0.0,0.0,23,0.00,,---,0.00,VWS V14.00,2013-02-10 17:07:00,
2013-02-10 10:12:00,42.1,7.0,25.28,East,95,0.0,0.0,23,0.00,,---,0.00,VWS V14.00,2013-02-10 17:12:00,
2013-02-10 10:17:00,42.3,7.1,25.28,ENE,65,0.0,0.0,23,0.00,,---,0.00,VWS V14.00,2013-02-10 17:17:00,
2013-02-10 10:23:00,42.8,7.6,25.28,SE,145,3.6,3.6,23,0.00,,---,0.00,VWS V14.00,2013-02-10 17:23:00,
2013-02-10 10:28:00,42.6,7.4,25.28,SE,142,0.0,2.7,23,0.00,,---,0.00,VWS V14.00,2013-02-10 17:28:00,
2013-02-10 10:33:00,42.4,7.3,25.28,SE,136,5.4,6.3,23,0.00,,---,0.00,VWS V14.00,2013-02-10 17:33:00,
2013-02-10 10:38:00,42.4,5.3,25.28,SE,144,5.8,6.3,21,0.00,,---,0.00,VWS V14.00,2013-02-10 17:38:00,
2013-02-10 10:43:00,42.3,5.1,25.28,East,85,2.2,4.0,21,0.00,,---,0.00,VWS V14.00,2013-02-10 17:43:00,
2013-02-10 10:48:00,42.8,7.6,25.28,East,84,2.7,3.1,23,0.00,,---,0.00,VWS V14.00,2013-02-10 17:48:00,
2013-02-10 10:53:00,43.2,4.8,25.28,NE,56,0.0,0.0,20,0.00,,---,0.00,VWS V14.00,2013-02-10 17:53:00,
2013-02-10 10:58:00,43.5,5.1,25.25,NE,34,6.3,6.3,20,0.00,,---,0.00,VWS V14.00,2013-02-10 17:58:00,
2013-02-10 11:03:00,43.7,5.3,25.25,North,353,7.6,7.6,20,0.00,,---,0.00,VWS V14.00,2013-02-10 18:03:00,
2013-02-10 11:09:00,43.7,5.3,25.25,East,93,8.1,10.1,20,0.00,,---,0.00,VWS V14.00,2013-02-10 18:09:00,
2013-02-10 11:14:00,43.7,5.3,25.25,ENE,62,0.0,3.6,20,0.00,,---,0.00,VWS V14.00,2013-02-10 18:14:00,
2013-02-10 11:19:00,44.1,5.6,25.25,NNE,14,0.0,0.0,20,0.00,,---,0.00,VWS V14.00,2013-02-10 18:19:00,
2013-02-10 11:24:00,44.1,5.6,25.25,ESE,110,3.1,3.6,20,0.00,,---,0.00,VWS V14.00,2013-02-10 18:24:00,
2013-02-10 11:29:00,44.8,6.2,25.25,SSW,207,4.0,5.4,20,0.00,,---,0.00,VWS V14.00,2013-02-10 18:29:00,
2013-02-10 11:34:00,45.0,6.3,25.25,NE,55,8.3,8.3,20,0.00,,---,0.00,VWS V14.00,2013-02-10 18:34:00,
2013-02-10 11:39:00,45.0,6.3,25.25,NNE,31,4.9,4.9,20,0.00,,---,0.00,VWS V14.00,2013-02-10 18:39:00,
2013-02-10 11:44:00,45.3,6.6,25.25,NNW,345,0.0,0.0,20,0.00,,---,0.00,VWS V14.00,2013-02-10 18:44:00,
2013-02-10 11:49:00,45.7,6.9,25.25,NNE,12,4.0,5.8,20,0.00,,---,0.00,VWS V14.00,2013-02-10 18:49:00,
2013-02-10 11:55:00,46.2,7.4,25.25,NNW,335,5.8,5.8,20,0.00,,---,0.00,VWS V14.00,2013-02-10 18:55:00,
2013-02-10 12:00:00,46.4,6.4,25.25,NE,47,6.3,7.6,19,0.00,,---,0.00,VWS V14.00,2013-02-10 19:00:00,
2013-02-10 12:05:00,47.1,7.0,25.25,ENE,65,3.1,3.1,19,0.00,,---,0.00,VWS V14.00,2013-02-10 19:05:00,
2013-02-10 12:10:00,46.9,6.8,25.25,NE,37,3.1,6.3,19,0.00,,---,0.00,VWS V14.00,2013-02-10 19:10:00,
2013-02-10 12:15:00,47.1,7.0,25.25,NE,51,5.8,7.2,19,0.00,,---,0.00,VWS V14.00,2013-02-10 19:15:00,
2013-02-10 12:20:00,47.1,7.0,25.25,East,101,0.0,2.7,19,0.00,,---,0.00,VWS V14.00,2013-02-10 19:20:00,
2013-02-10 12:25:00,46.9,6.8,25.22,NE,45,3.1,3.1,19,0.00,,---,0.00,VWS V14.00,2013-02-10 19:25:00,
2013-02-10 12:30:00,47.1,7.0,25.22,North,1,0.0,0.0,19,0.00,,---,0.00,VWS V14.00,2013-02-10 19:30:00,
2013-02-10 12:36:00,47.1,7.0,25.22,NE,47,3.1,3.6,19,0.00,,---,0.00,VWS V14.00,2013-02-10 19:36:00,
2013-02-10 12:41:00,47.7,7.4,25.22,NNE,19,6.3,6.3,19,0.00,,---,0.00,VWS V14.00,2013-02-10 19:41:00,
2013-02-10 12:46:00,47.8,7.6,25.22,NW,308,0.0,3.6,19,0.00,,---,0.00,VWS V14.00,2013-02-10 19:46:00,
2013-02-10 12:51:00,48.4,8.0,25.22,NNE,28,0.0,5.8,19,0.00,,---,0.00,VWS V14.00,2013-02-10 19:51:00,
2013-02-10 12:56:00,48.7,8.3,25.22,NE,39,0.0,3.1,19,0.00,,---,0.00,VWS V14.00,2013-02-10 19:56:00,
2013-02-10 13:01:00,48.9,8.5,25.22,NNW,343,4.0,4.0,19,0.00,,---,0.00,VWS V14.00,2013-02-10 20:01:00,
2013-02-10 13:06:00,48.9,8.5,25.22,North,3,3.1,4.0,19,0.00,,---,0.00,VWS V14.00,2013-02-10 20:06:00,
2013-02-10 13:11:00,49.1,8.6,25.22,NW,325,3.6,6.3,19,0.00,,---,0.00,VWS V14.00,2013-02-10 20:11:00,
2013-02-10 13:16:00,48.4,8.0,25.22,NE,52,6.3,6.3,19,0.00,,---,0.00,VWS V14.00,2013-02-10 20:16:00,
2013-02-10 13:22:00,48.6,8.2,25.22,SE,124,2.2,5.8,19,0.00,,---,0.00,VWS V14.00,2013-02-10 20:22:00,
2013-02-10 13:27:00,48.9,8.5,25.19,East,98,2.7,4.0,19,0.00,,---,0.00,VWS V14.00,2013-02-10 20:27:00,
2013-02-10 13:32:00,49.5,8.9,25.19,ENE,77,0.0,3.1,19,0.00,,---,0.00,VWS V14.00,2013-02-10 20:32:00,
2013-02-10 13:37:00,49.6,9.1,25.19,ESE,114,5.4,6.3,19,0.00,,---,0.00,VWS V14.00,2013-02-10 20:37:00,
2013-02-10 13:42:00,49.8,9.2,25.19,SE,127,0.0,5.4,19,0.00,,---,0.00,VWS V14.00,2013-02-10 20:42:00,
2013-02-10 13:47:00,50.0,9.4,25.19,SW,231,10.5,11.4,19,0.00,,---,0.00,VWS V14.00,2013-02-10 20:47:00,
2013-02-10 13:52:00,50.9,10.1,25.19,SW,219,8.1,8.1,19,0.00,,---,0.00,VWS V14.00,2013-02-10 20:52:00,
2013-02-10 13:57:00,51.6,10.7,25.19,South,175,8.3,8.3,19,0.00,,---,0.00,VWS V14.00,2013-02-10 20:57:00,
2013-02-10 14:03:00,51.8,9.7,25.19,SW,220,12.8,12.8,18,0.00,,---,0.00,VWS V14.00,2013-02-10 21:03:00,
2013-02-10 14:08:00,51.6,10.7,25.19,SSE,160,10.5,10.5,19,0.00,,---,0.00,VWS V14.00,2013-02-10 21:08:00,
2013-02-10 14:13:00,51.6,10.7,25.19,SSW,202,5.8,13.2,19,0.00,,---,0.00,VWS V14.00,2013-02-10 21:13:00,
2013-02-10 14:18:00,50.9,10.1,25.19,SSW,196,0.0,4.0,19,0.00,,---,0.00,VWS V14.00,2013-02-10 21:18:00,
2013-02-10 14:23:00,51.3,10.4,25.19,SW,217,2.7,5.4,19,0.00,,---,0.00,VWS V14.00,2013-02-10 21:23:00,
2013-02-10 14:28:00,51.6,10.7,25.19,South,169,8.3,10.1,19,0.00,,---,0.00,VWS V14.00,2013-02-10 21:28:00,
2013-02-10 14:33:00,51.6,10.7,25.19,South,186,8.1,8.3,19,0.00,,---,0.00,VWS V14.00,2013-02-10 21:33:00,
2013-02-10 14:38:00,51.8,9.7,25.19,South,183,8.1,8.1,18,0.00,,---,0.00,VWS V14.00,2013-02-10 21:38:00,
2013-02-10 14:44:00,51.8,9.7,25.19,SSW,202,6.3,6.7,18,0.00,,---,0.00,VWS V14.00,2013-02-10 21:44:00,
2013-02-10 14:49:00,52.5,10.2,25.19,SW,235,6.7,10.1,18,0.00,,---,0.00,VWS V14.00,2013-02-10 21:49:00,
2013-02-10 14:54:00,52.0,9.8,25.19,West,274,8.3,14.1,18,0.00,,---,0.00,VWS V14.00,2013-02-10 21:54:00,
2013-02-10 14:59:00,51.8,9.7,25.19,SE,136,4.9,4.9,18,0.00,,---,0.00,VWS V14.00,2013-02-10 21:59:00,
2013-02-10 15:04:00,52.0,9.8,25.19,NW,304,5.4,5.4,18,0.00,,---,0.00,VWS V14.00,2013-02-10 22:04:00,
2013-02-10 15:09:00,52.3,10.1,25.16,South,182,4.0,4.0,18,0.00,,---,0.00,VWS V14.00,2013-02-10 22:09:00,
2013-02-10 15:14:00,52.7,10.4,25.16,WSW,251,0.0,0.0,18,0.00,,---,0.00,VWS V14.00,2013-02-10 22:14:00,
2013-02-10 15:19:00,53.2,10.9,25.16,WSW,241,0.0,5.4,18,0.00,,---,0.00,VWS V14.00,2013-02-10 22:19:00,
2013-02-10 15:25:00,53.1,10.7,25.16,WSW,238,0.0,0.0,18,0.00,,---,0.00,VWS V14.00,2013-02-10 22:25:00,
2013-02-10 15:30:00,52.7,10.4,25.16,WSW,238,5.8,8.3,18,0.00,,---,0.00,VWS V14.00,2013-02-10 22:30:00,
2013-02-10 15:35:00,52.5,10.2,25.16,NW,315,7.6,7.6,18,0.00,,---,0.00,VWS V14.00,2013-02-10 22:35:00,
2013-02-10 15:40:00,52.5,10.2,25.19,West,269,8.1,8.1,18,0.00,,---,0.00,VWS V14.00,2013-02-10 22:40:00,
2013-02-10 15:45:00,52.5,10.2,25.19,West,271,10.1,10.5,18,0.00,,---,0.00,VWS V14.00,2013-02-10 22:45:00,
2013-02-10 15:50:00,52.5,10.2,25.19,WSW,247,11.0,11.0,18,0.00,,---,0.00,VWS V14.00,2013-02-10 22:50:00,
2013-02-10 15:56:00,52.2,10.0,25.16,WNW,298,15.0,16.3,18,0.00,,---,0.00,VWS V14.00,2013-02-10 22:56:00,
2013-02-10 16:01:00,51.8,9.7,25.16,West,266,17.4,18.8,18,0.00,,---,0.00,VWS V14.00,2013-02-10 23:01:00,
2013-02-10 16:06:00,51.8,9.7,25.16,West,267,14.5,15.0,18,0.00,,---,0.00,VWS V14.00,2013-02-10 23:06:00,
2013-02-10 16:11:00,51.4,10.6,25.19,NW,321,10.5,11.0,19,0.00,,---,0.00,VWS V14.00,2013-02-10 23:11:00,
2013-02-10 16:16:00,51.1,10.3,25.19,WNW,294,6.3,15.9,19,0.00,,---,0.00,VWS V14.00,2013-02-10 23:16:00,
2013-02-10 16:21:00,51.1,10.3,25.19,West,272,15.0,18.8,19,0.00,,---,0.00,VWS V14.00,2013-02-10 23:21:00,
2013-02-10 16:26:00,50.9,10.1,25.19,West,278,8.3,10.5,19,0.00,,---,0.00,VWS V14.00,2013-02-10 23:26:00,
2013-02-10 16:31:00,50.9,10.1,25.19,West,270,12.8,13.2,19,0.00,,---,0.00,VWS V14.00,2013-02-10 23:31:00,
2013-02-10 16:36:00,50.9,10.1,25.19,West,260,16.8,16.8,19,0.00,,---,0.00,VWS V14.00,2013-02-10 23:36:00,
2013-02-10 16:41:00,50.5,9.8,25.19,West,273,5.4,7.6,19,0.00,,---,0.00,VWS V14.00,2013-02-10 23:41:00,
2013-02-10 16:47:00,50.4,9.7,25.19,WSW,240,10.5,11.4,19,0.00,,---,0.00,VWS V14.00,2013-02-10 23:47:00,
2013-02-10 16:52:00,50.2,9.5,25.19,NW,305,10.1,11.0,19,0.00,,---,0.00,VWS V14.00,2013-02-10 23:52:00,
2013-02-10 16:57:00,49.8,9.2,25.19,West,280,12.3,15.4,19,0.00,,---,0.00,VWS V14.00,2013-02-10 23:57:00,
2013-02-10 17:02:00,49.5,8.9,25.19,West,259,12.8,12.8,19,0.00,,---,0.00,VWS V14.00,2013-02-11 00:02:00,
2013-02-10 17:07:00,49.1,8.6,25.19,West,271,8.1,10.1,19,0.00,,---,0.00,VWS V14.00,2013-02-11 00:07:00,
2013-02-10 17:12:00,48.7,8.3,25.19,West,270,12.8,12.8,19,0.00,,---,0.00,VWS V14.00,2013-02-11 00:12:00,
2013-02-10 17:17:00,48.2,7.9,25.19,WNW,285,8.7,10.5,19,0.00,,---,0.00,VWS V14.00,2013-02-11 00:17:00,
2013-02-10 17:22:00,47.3,7.1,25.19,WSW,248,4.0,6.3,19,0.00,,---,0.00,VWS V14.00,2013-02-11 00:22:00,
2013-02-10 17:27:00,46.4,6.4,25.19,NW,308,6.3,8.7,19,0.00,,---,0.00,VWS V14.00,2013-02-11 00:27:00,
2013-02-10 17:32:00,45.9,7.1,25.19,West,281,6.3,6.3,20,0.00,,---,0.00,VWS V14.00,2013-02-11 00:32:00,
2013-02-10 17:38:00,45.3,6.6,25.19,West,274,4.0,5.4,20,0.00,,---,0.00,VWS V14.00,2013-02-11 00:38:00,
2013-02-10 17:43:00,44.6,6.0,25.19,West,264,5.8,6.3,20,0.00,,---,0.00,VWS V14.00,2013-02-11 00:43:00,
2013-02-10 17:48:00,44.6,6.0,25.19,WNW,285,5.8,5.8,20,0.00,,---,0.00,VWS V14.00,2013-02-11 00:48:00,
2013-02-10 17:53:00,44.2,5.7,25.19,West,274,5.4,6.3,20,0.00,,---,0.00,VWS V14.00,2013-02-11 00:53:00,
2013-02-10 17:58:00,44.1,5.6,25.19,West,266,3.6,4.0,20,0.00,,---,0.00,VWS V14.00,2013-02-11 00:58:00,
2013-02-10 18:03:00,43.5,5.1,25.19,WNW,290,4.9,6.3,20,0.00,,---,0.00,VWS V14.00,2013-02-11 01:03:00,
2013-02-10 18:08:00,43.0,4.7,25.19,West,263,5.4,5.4,20,0.00,,---,0.00,VWS V14.00,2013-02-11 01:08:00,
2013-02-10 18:13:00,42.8,4.5,25.19,WSW,251,5.4,5.4,20,0.00,,---,0.00,VWS V14.00,2013-02-11 01:13:00,
2013-02-10 18:18:00,42.8,4.5,25.19,WSW,245,5.4,6.3,20,0.00,,---,0.00,VWS V14.00,2013-02-11 01:18:00,
2013-02-10 18:23:00,43.3,5.0,25.19,WSW,242,3.6,4.0,20,0.00,,---,0.00,VWS V14.00,2013-02-11 01:23:00,
2013-02-10 18:29:00,43.5,5.1,25.19,WSW,249,5.8,5.8,20,0.00,,---,0.00,VWS V14.00,2013-02-11 01:29:00,
2013-02-10 18:34:00,43.5,5.1,25.19,WSW,254,5.4,6.7,20,0.00,,---,0.00,VWS V14.00,2013-02-11 01:34:00,
2013-02-10 18:39:00,43.3,5.0,25.22,WSW,254,7.6,8.1,20,0.00,,---,0.00,VWS V14.00,2013-02-11 01:39:00,
2013-02-10 18:44:00,43.3,5.0,25.22,West,264,10.5,10.5,20,0.00,,---,0.00,VWS V14.00,2013-02-11 01:44:00,
2013-02-10 18:49:00,43.5,5.1,25.22,WSW,251,6.3,7.6,20,0.00,,---,0.00,VWS V14.00,2013-02-11 01:49:00,
2013-02-10 18:54:00,43.7,5.3,25.22,West,268,7.6,7.6,20,0.00,,---,0.00,VWS V14.00,2013-02-11 01:54:00,
2013-02-10 18:59:00,43.3,5.0,25.22,WSW,237,8.1,8.1,20,0.00,,---,0.00,VWS V14.00,2013-02-11 01:59:00,
2013-02-10 19:04:00,43.0,4.7,25.22,WSW,253,8.3,8.7,20,0.00,,---,0.00,VWS V14.00,2013-02-11 02:04:00,
2013-02-10 19:09:00,42.8,4.5,25.22,WSW,251,5.8,8.1,20,0.00,,---,0.00,VWS V14.00,2013-02-11 02:09:00,
2013-02-10 19:14:00,42.8,4.5,25.22,WSW,258,8.3,10.5,20,0.00,,---,0.00,VWS V14.00,2013-02-11 02:14:00,
2013-02-10 19:20:00,42.8,4.5,25.22,WSW,257,6.3,8.3,20,0.00,,---,0.00,VWS V14.00,2013-02-11 02:20:00,
2013-02-10 19:25:00,42.4,5.3,25.22,West,272,8.1,8.1,21,0.00,,---,0.00,VWS V14.00,2013-02-11 02:25:00,
2013-02-10 19:30:00,42.3,5.1,25.22,West,261,8.1,10.5,21,0.00,,---,0.00,VWS V14.00,2013-02-11 02:30:00,
2013-02-10 19:35:00,42.1,5.0,25.22,WSW,243,7.2,8.3,21,0.00,,---,0.00,VWS V14.00,2013-02-11 02:35:00,
2013-02-10 19:40:00,41.7,4.7,25.22,WSW,256,4.9,4.9,21,0.00,,---,0.00,VWS V14.00,2013-02-11 02:40:00,
2013-02-10 19:45:00,41.7,4.7,25.22,West,263,9.2,9.2,21,0.00,,---,0.00,VWS V14.00,2013-02-11 02:45:00,
2013-02-10 19:50:00,41.9,4.8,25.22,SW,233,2.7,3.6,21,0.00,,---,0.00,VWS V14.00,2013-02-11 02:50:00,
2013-02-10 19:55:00,41.5,4.5,25.22,SW,218,2.2,2.7,21,0.00,,---,0.00,VWS V14.00,2013-02-11 02:55:00,
2013-02-10 20:00:00,40.6,3.8,25.22,SW,217,0.0,0.0,21,0.00,,---,0.00,VWS V14.00,2013-02-11 03:00:00,
2013-02-10 20:05:00,40.5,3.6,25.22,WSW,241,0.0,2.7,21,0.00,,---,0.00,VWS V14.00,2013-02-11 03:05:00,
2013-02-10 20:11:00,39.9,3.2,25.22,WSW,240,0.0,0.0,21,0.00,,---,0.00,VWS V14.00,2013-02-11 03:11:00,
2013-02-10 20:16:00,39.2,2.6,25.22,WNW,285,0.0,2.2,21,0.00,,---,0.00,VWS V14.00,2013-02-11 03:16:00,
2013-02-10 20:21:00,39.4,2.7,25.22,WSW,247,4.0,4.0,21,0.00,,---,0.00,VWS V14.00,2013-02-11 03:21:00,
2013-02-10 20:26:00,39.9,3.2,25.22,West,259,2.7,7.2,21,0.00,,---,0.00,VWS V14.00,2013-02-11 03:26:00,
2013-02-10 20:31:00,40.3,3.5,25.22,West,278,6.7,7.6,21,0.00,,---,0.00,VWS V14.00,2013-02-11 03:31:00,
2013-02-10 20:36:00,40.1,3.3,25.22,SW,220,2.7,2.7,21,0.00,,---,0.00,VWS V14.00,2013-02-11 03:36:00,
2013-02-10 20:41:00,39.7,3.0,25.22,WSW,247,0.0,0.0,21,0.00,,---,0.00,VWS V14.00,2013-02-11 03:41:00,
2013-02-10 20:46:00,38.7,2.1,25.22,WSW,240,4.0,4.9,21,0.00,,---,0.00,VWS V14.00,2013-02-11 03:46:00,
2013-02-10 20:51:00,37.8,1.4,25.22,WSW,243,3.6,3.6,21,0.00,,---,0.00,VWS V14.00,2013-02-11 03:51:00,
2013-02-10 20:56:00,37.6,1.2,25.25,SW,224,3.1,3.6,21,0.00,,---,0.00,VWS V14.00,2013-02-11 03:56:00,
2013-02-10 21:02:00,36.5,1.3,25.25,WSW,250,2.7,4.0,22,0.00,,---,0.00,VWS V14.00,2013-02-11 04:02:00,
2013-02-10 21:07:00,36.3,1.1,25.25,WSW,250,0.0,0.0,22,0.00,,---,0.00,VWS V14.00,2013-02-11 04:07:00,
2013-02-10 21:12:00,36.3,1.1,25.25,East,81,0.0,2.2,22,0.00,,---,0.00,VWS V14.00,2013-02-11 04:12:00,
2013-02-10 21:17:00,37.0,1.7,25.25,South,172,0.0,0.0,22,0.00,,---,0.00,VWS V14.00,2013-02-11 04:17:00,
2013-02-10 21:22:00,37.4,1.0,25.25,South,189,0.0,0.0,21,0.00,,---,0.00,VWS V14.00,2013-02-11 04:22:00,
2013-02-10 21:27:00,37.4,1.0,25.25,South,189,0.0,0.0,21,0.00,,---,0.00,VWS V14.00,2013-02-11 04:27:00,
2013-02-10 21:32:00,36.9,1.6,25.25,SSW,192,0.0,0.0,22,0.00,,---,0.00,VWS V14.00,2013-02-11 04:32:00,
2013-02-10 21:37:00,36.7,1.4,25.25,SSW,192,0.0,0.0,22,0.00,,---,0.00,VWS V14.00,2013-02-11 04:37:00,
2013-02-10 21:42:00,36.9,1.6,25.25,NE,43,5.4,5.4,22,0.00,,---,0.00,VWS V14.00,2013-02-11 04:42:00,
2013-02-10 21:48:00,36.9,1.6,25.25,NNE,20,2.7,4.0,22,0.00,,---,0.00,VWS V14.00,2013-02-11 04:48:00,
2013-02-10 21:53:00,37.2,1.9,25.25,NNW,332,0.0,4.0,22,0.00,,---,0.00,VWS V14.00,2013-02-11 04:53:00,
2013-02-10 21:58:00,37.4,1.0,25.22,SW,220,3.6,5.8,21,0.00,,---,0.00,VWS V14.00,2013-02-11 04:58:00,
2013-02-10 22:00:00,37.9,1.5,25.22,SW,233,2.2,5.8,21,0.00,,---,0.00,VWS V14.00,2013-02-11 05:00:00,
2013-02-10 22:02:00,38.8,2.3,25.22,SSW,200,0.0,4.9,21,0.00,,---,0.00,VWS V14.00,2013-02-11 05:02:00,
2013-02-10 22:03:00,39.0,2.4,25.22,SSW,195,0.0,0.0,21,0.00,,---,0.00,VWS V14.00,2013-02-11 05:03:00,
2013-02-10 22:08:00,39.2,2.6,25.22,SSW,194,0.0,0.0,21,0.00,,---,0.00,VWS V14.00,2013-02-11 05:08:00,
2013-02-10 22:13:00,38.5,2.0,25.25,East,79,0.0,0.0,21,0.00,,---,0.00,VWS V14.00,2013-02-11 05:13:00,
2013-02-10 22:18:00,37.6,1.2,25.25,ESE,123,4.0,4.0,21,0.00,,---,0.00,VWS V14.00,2013-02-11 05:18:00,
2013-02-10 22:23:00,38.1,1.6,25.25,SE,129,0.0,0.0,21,0.00,,---,0.00,VWS V14.00,2013-02-11 05:23:00,
2013-02-10 22:28:00,38.7,2.1,25.25,SE,129,0.0,0.0,21,0.00,,---,0.00,VWS V14.00,2013-02-11 05:28:00,
2013-02-10 22:34:00,38.8,2.3,25.25,SE,129,0.0,0.0,21,0.00,,---,0.00,VWS V14.00,2013-02-11 05:34:00,
2013-02-10 22:39:00,38.7,2.1,25.25,SE,128,0.0,0.0,21,0.00,,---,0.00,VWS V14.00,2013-02-11 05:39:00,
2013-02-10 22:44:00,37.4,1.0,25.25,SE,129,0.0,0.0,21,0.00,,---,0.00,VWS V14.00,2013-02-11 05:44:00,
2013-02-10 22:49:00,36.9,1.6,25.25,SSW,200,0.0,0.0,22,0.00,,---,0.00,VWS V14.00,2013-02-11 05:49:00,
2013-02-10 22:54:00,37.4,1.0,25.25,SSW,200,0.0,0.0,21,0.00,,---,0.00,VWS V14.00,2013-02-11 05:54:00,
2013-02-10 22:59:00,37.0,1.7,25.25,West,277,0.0,0.0,22,0.00,,---,0.00,VWS V14.00,2013-02-11 05:59:00,
2013-02-10 23:04:00,36.7,1.4,25.25,SSW,197,0.0,0.0,22,0.00,,---,0.00,VWS V14.00,2013-02-11 06:04:00,
2013-02-10 23:09:00,36.5,1.3,25.25,SSW,197,0.0,0.0,22,0.00,,---,0.00,VWS V14.00,2013-02-11 06:09:00,
2013-02-10 23:15:00,36.1,1.0,25.25,SW,231,0.0,0.0,22,0.00,,---,0.00,VWS V14.00,2013-02-11 06:15:00,
2013-02-10 23:20:00,36.1,1.0,25.25,NW,322,0.0,0.0,22,0.00,,---,0.00,VWS V14.00,2013-02-11 06:20:00,
2013-02-10 23:25:00,36.5,1.3,25.25,WNW,284,3.6,4.0,22,0.00,,---,0.00,VWS V14.00,2013-02-11 06:25:00,
2013-02-10 23:30:00,36.0,0.8,25.25,WNW,293,0.0,0.0,22,0.00,,---,0.00,VWS V14.00,2013-02-11 06:30:00,
2013-02-10 23:35:00,35.4,0.4,25.25,WNW,293,0.0,0.0,22,0.00,,---,0.00,VWS V14.00,2013-02-11 06:35:00,
2013-02-10 23:40:00,35.2,0.2,25.25,WNW,299,0.0,0.0,22,0.00,,---,0.00,VWS V14.00,2013-02-11 06:40:00,
2013-02-10 23:45:00,35.2,0.2,25.25,WNW,292,0.0,0.0,22,0.00,,---,0.00,VWS V14.00,2013-02-11 06:45:00,
2013-02-10 23:50:00,35.6,0.5,25.25,WNW,290,0.0,0.0,22,0.00,,---,0.00,VWS V14.00,2013-02-11 06:50:00,
2013-02-10 23:55:00,35.8,0.7,25.25,WNW,284,0.0,0.0,22,0.00,,---,0.00,VWS V14.00,2013-02-11 06:55:00,